Time;durP1;ratioP1;P1;durP2;ratioP2;P2;SDS_P1;SDS_P2;PMS_P1;PMS_P2;Temp;Humidity;BMP_temperature;BMP_pressure;BME280_temperature;BME280_humidity;BME280_pressure;Samples;Min_cycle;Max_cycle;Signal;HPM_P1;HPM_P2
2021/06/21 00:07:14;;;;;;;8.33;6.47;;;;;;;;;;20589705;28;20244;-52
2021/06/21 00:17:16;;;;;;;7.33;6.73;;;;;;;;;;20589527;28;20230;-53
2021/06/21 00:27:16;;;;;;;7.00;6.50;;;;;;;;;;20588580;28;20655;-54
2021/06/21 00:37:17;;;;;;;7.57;6.00;;;;;;;;;;20586879;28;20225;-54
2021/06/21 00:47:18;;;;;;;6.90;6.37;;;;;;;;;;20587049;28;20636;-59
2021/06/21 00:57:18;;;;;;;8.07;7.37;;;;;;;;;;20586319;28;20237;-58
2021/06/21 01:07:19;;;;;;;8.07;7.33;;;;;;;;;;20585426;28;20250;-54
2021/06/21 01:17:23;;;;;;;7.90;7.20;;;;;;;;;;20584950;28;20221;-54
2021/06/21 01:27:41;;;;;;;8.23;7.00;;;;;;;;;;20583776;28;20590;-55
2021/06/21 01:37:42;;;;;;;7.30;6.70;;;;;;;;;;20583428;28;20579;-62
2021/06/21 01:47:45;;;;;;;7.40;6.80;;;;;;;;;;20581891;28;20239;-53
2021/06/21 01:57:47;;;;;;;8.90;7.47;;;;;;;;;;20581770;28;20221;-53
2021/06/21 02:07:48;;;;;;;9.93;9.03;;;;;;;;;;20580975;28;20230;-53
2021/06/21 02:17:49;;;;;;;9.97;8.97;;;;;;;;;;20580631;28;20583;-55
2021/06/21 02:27:50;;;;;;;8.60;7.90;;;;;;;;;;20579801;28;20241;-53
2021/06/21 02:37:51;;;;;;;8.13;7.37;;;;;;;;;;20578177;28;20214;-53
2021/06/21 02:47:51;;;;;;;8.73;7.87;;;;;;;;;;20578764;28;20226;-53
2021/06/21 02:57:51;;;;;;;9.10;7.37;;;;;;;;;;20578210;28;20305;-57
2021/06/21 03:07:52;;;;;;;7.10;6.33;;;;;;;;;;20593328;28;20236;-57
2021/06/21 03:17:53;;;;;;;5.40;5.00;;;;;;;;;;20593763;28;20757;-54
2021/06/21 03:27:55;;;;;;;6.03;4.90;;;;;;;;;;20593245;28;20271;-54
2021/06/21 03:37:55;;;;;;;4.28;3.70;;;;;;;;;;20592441;28;20264;-55
2021/06/21 03:47:55;;;;;;;8.40;3.85;;;;;;;;;;20591638;28;20257;-54
2021/06/21 03:57:56;;;;;;;7.93;3.50;;;;;;;;;;20590591;28;20218;-56
2021/06/21 04:07:57;;;;;;;7.03;3.92;;;;;;;;;;20590006;28;20288;-56
2021/06/21 04:17:58;;;;;;;5.38;3.67;;;;;;;;;;20589246;28;20210;-63
2021/06/21 04:27:59;;;;;;;4.47;3.20;;;;;;;;;;20588476;28;20223;-53
2021/06/21 04:38:00;;;;;;;3.85;3.25;;;;;;;;;;20588130;28;20222;-58
2021/06/21 04:48:00;;;;;;;5.07;3.65;;;;;;;;;;20587243;28;20249;-53
2021/06/21 04:58:01;;;;;;;6.53;3.83;;;;;;;;;;20586184;28;20634;-53
2021/06/21 05:08:01;;;;;;;4.00;3.13;;;;;;;;;;20585559;28;20229;-54
2021/06/21 05:18:01;;;;;;;20.98;4.32;;;;;;;;;;20617046;28;20690;-53
2021/06/21 05:28:02;;;;;;;13.77;4.15;;;;;;;;;;20640620;28;20230;-53
2021/06/21 05:38:03;;;;;;;7.95;3.53;;;;;;;;;;20582190;28;20213;-53
2021/06/21 05:48:04;;;;;;;7.87;4.20;;;;;;;;;;20579118;28;20716;-52
2021/06/21 05:58:05;;;;;;;6.85;4.07;;;;;;;;;;20578843;28;20305;-55
2021/06/21 06:08:05;;;;;;;5.28;3.90;;;;;;;;;;20580388;28;20325;-53
2021/06/21 06:18:06;;;;;;;8.98;3.67;;;;;;;;;;20580784;28;20215;-54
2021/06/21 06:28:06;;;;;;;10.90;4.45;;;;;;;;;;20578333;28;20307;-53
2021/06/21 06:38:06;;;;;;;13.88;4.55;;;;;;;;;;20578933;28;20233;-67
2021/06/21 06:48:07;;;;;;;9.30;3.42;;;;;;;;;;20611811;28;20233;-53
2021/06/21 06:58:07;;;;;;;12.15;4.40;;;;;;;;;;20606703;28;20225;-53
2021/06/21 07:08:08;;;;;;;13.48;3.42;;;;;;;;;;20617320;28;20287;-52
2021/06/21 07:18:08;;;;;;;14.20;3.42;;;;;;;;;;20635406;28;20594;-55
2021/06/21 07:28:11;;;;;;;13.27;3.13;;;;;;;;;;20634745;28;20237;-53
2021/06/21 07:38:11;;;;;;;10.50;2.88;;;;;;;;;;20633567;28;20237;-53
2021/06/21 07:48:12;;;;;;;9.68;2.92;;;;;;;;;;20638294;28;20833;-53
2021/06/21 07:58:12;;;;;;;15.82;3.30;;;;;;;;;;20647845;28;20225;-53
2021/06/21 08:08:12;;;;;;;12.73;2.80;;;;;;;;;;20646888;28;20272;-53
2021/06/21 08:18:13;;;;;;;10.48;2.60;;;;;;;;;;20613082;28;20222;-53
2021/06/21 08:28:13;;;;;;;10.05;2.65;;;;;;;;;;20564801;28;20230;-53
2021/06/21 08:38:14;;;;;;;6.53;2.60;;;;;;;;;;20577197;28;20242;-53
2021/06/21 08:48:15;;;;;;;7.30;2.25;;;;;;;;;;20576459;28;20248;-54
2021/06/21 08:58:15;;;;;;;14.20;3.03;;;;;;;;;;20574028;28;20800;-54
2021/06/21 09:08:16;;;;;;;13.80;2.80;;;;;;;;;;20573186;28;20238;-54
2021/06/21 09:18:35;;;;;;;13.57;3.28;;;;;;;;;;20566196;28;20221;-54
2021/06/21 09:28:36;;;;;;;13.43;2.88;;;;;;;;;;20565833;28;20276;-54
2021/06/21 09:38:36;;;;;;;9.27;2.70;;;;;;;;;;20573211;28;20214;-56
2021/06/21 09:48:38;;;;;;;12.93;2.22;;;;;;;;;;20577625;28;20273;-57
2021/06/21 09:58:38;;;;;;;10.70;2.65;;;;;;;;;;20581755;28;20210;-60
2021/06/21 10:08:46;;;;;;;15.82;2.50;;;;;;;;;;20581255;28;20714;-54
2021/06/21 10:18:46;;;;;;;11.73;2.17;;;;;;;;;;20581003;28;20209;-59
2021/06/21 10:28:48;;;;;;;10.48;2.05;;;;;;;;;;20571854;28;20328;-54
2021/06/21 10:39:08;;;;;;;7.95;2.22;;;;;;;;;;20570242;28;20691;-55
2021/06/21 10:49:20;;;;;;;4.80;2.00;;;;;;;;;;20568552;28;20289;-69
2021/06/21 10:59:24;;;;;;;6.30;1.88;;;;;;;;;;20568593;28;20228;-54
2021/06/21 11:09:41;;;;;;;5.70;1.40;;;;;;;;;;20563235;28;20230;-54
2021/06/21 11:19:41;;;;;;;4.82;1.92;;;;;;;;;;20555359;28;20233;-54
2021/06/21 11:29:43;;;;;;;7.15;1.95;;;;;;;;;;20575020;28;20206;-53
2021/06/21 11:39:44;;;;;;;16.42;2.08;;;;;;;;;;20582744;28;20317;-54
2021/06/21 11:49:45;;;;;;;9.35;1.45;;;;;;;;;;20581672;28;20316;-53
2021/06/21 11:59:49;;;;;;;4.65;1.73;;;;;;;;;;20580566;28;20249;-53
2021/06/21 12:09:53;;;;;;;8.68;1.92;;;;;;;;;;20565952;28;20225;-53
2021/06/21 12:20:03;;;;;;;4.25;1.35;;;;;;;;;;20566850;28;20250;-53
2021/06/21 12:30:03;;;;;;;1.83;1.48;;;;;;;;;;20565654;28;20210;-53
2021/06/21 12:40:11;;;;;;;3.88;1.45;;;;;;;;;;20564024;28;20229;-54
2021/06/21 12:50:12;;;;;;;8.18;1.75;;;;;;;;;;20562755;28;20263;-54
2021/06/21 13:00:14;;;;;;;15.05;2.50;;;;;;;;;;20560998;28;20236;-54
2021/06/21 13:10:19;;;;;;;2.58;1.27;;;;;;;;;;20563339;28;20241;-54
2021/06/21 13:20:21;;;;;;;3.15;1.30;;;;;;;;;;20551696;28;20234;-54
2021/06/21 13:30:30;;;;;;;37.75;3.72;;;;;;;;;;20561278;28;20225;-55
2021/06/21 13:40:33;;;;;;;4.82;1.35;;;;;;;;;;20533522;28;20762;-54
2021/06/21 13:50:41;;;;;;;7.55;1.90;;;;;;;;;;20548859;28;20214;-55
2021/06/21 14:00:46;;;;;;;31.88;3.15;;;;;;;;;;20534637;28;20241;-54
2021/06/21 14:10:46;;;;;;;5.93;1.75;;;;;;;;;;20540671;28;20237;-55
2021/06/21 14:20:47;;;;;;;1.60;1.27;;;;;;;;;;20539022;28;20812;-54
2021/06/21 14:30:47;;;;;;;7.00;1.50;;;;;;;;;;20542933;28;20213;-54
2021/06/21 14:40:48;;;;;;;6.30;1.80;;;;;;;;;;20567947;28;20234;-55
2021/06/21 14:50:49;;;;;;;1.83;1.20;;;;;;;;;;20545181;28;20237;-59
2021/06/21 15:00:51;;;;;;;7.63;1.73;;;;;;;;;;20610182;28;20645;-54
2021/06/21 15:10:53;;;;;;;5.25;1.60;;;;;;;;;;20576073;28;20352;-58
2021/06/21 15:20:53;;;;;;;25.73;2.65;;;;;;;;;;20645930;28;20233;-56
2021/06/21 15:30:54;;;;;;;3.63;1.42;;;;;;;;;;20628461;28;20216;-53
2021/06/21 15:40:54;;;;;;;27.55;3.60;;;;;;;;;;20638108;28;20684;-54
2021/06/21 15:50:55;;;;;;;7.05;1.77;;;;;;;;;;20636803;28;20240;-53
2021/06/21 16:00:55;;;;;;;3.25;1.38;;;;;;;;;;20630758;28;20225;-54
2021/06/21 16:10:56;;;;;;;2.50;1.30;;;;;;;;;;20648573;28;20896;-54
2021/06/21 16:20:56;;;;;;;3.75;1.10;;;;;;;;;;20634076;28;20257;-54
2021/06/21 16:30:56;;;;;;;2.85;1.30;;;;;;;;;;20657723;28;20687;-54
2021/06/21 16:40:57;;;;;;;1.58;1.20;;;;;;;;;;20634304;28;20225;-53
2021/06/21 16:50:57;;;;;;;1.73;1.38;;;;;;;;;;20656881;28;20574;-55
2021/06/21 17:00:57;;;;;;;3.88;1.40;;;;;;;;;;20639285;28;20218;-55
2021/06/21 17:10:58;;;;;;;7.65;1.98;;;;;;;;;;20647825;28;20226;-54
2021/06/21 17:20:58;;;;;;;2.10;1.50;;;;;;;;;;20644682;28;20225;-54
2021/06/21 17:30:58;;;;;;;6.60;1.88;;;;;;;;;;20639080;28;20215;-55
2021/06/21 17:40:59;;;;;;;3.20;1.48;;;;;;;;;;20652045;28;20707;-56
2021/06/21 17:50:59;;;;;;;7.40;1.58;;;;;;;;;;20618079;28;20219;-54
2021/06/21 18:01:01;;;;;;;3.83;2.15;;;;;;;;;;20651160;28;20291;-54
2021/06/21 18:11:01;;;;;;;7.85;2.80;;;;;;;;;;20628272;28;20727;-55
2021/06/21 18:21:02;;;;;;;3.30;2.35;;;;;;;;;;20653723;28;20218;-55
2021/06/21 18:31:02;;;;;;;7.07;1.95;;;;;;;;;;20634583;28;20244;-55
2021/06/21 18:41:03;;;;;;;3.80;2.20;;;;;;;;;;20640399;28;20309;-54
2021/06/21 18:51:03;;;;;;;10.13;2.15;;;;;;;;;;20639719;28;20268;-55
2021/06/21 19:01:04;;;;;;;4.13;3.40;;;;;;;;;;20633113;28;20252;-54
2021/06/21 19:11:04;;;;;;;7.20;3.70;;;;;;;;;;20628912;28;20261;-65
2021/06/21 19:21:05;;;;;;;5.10;2.80;;;;;;;;;;20622904;28;20284;-54
2021/06/21 19:31:05;;;;;;;2.93;2.60;;;;;;;;;;20644531;28;20217;-65
2021/06/21 19:41:05;;;;;;;8.70;3.07;;;;;;;;;;20610489;28;20226;-56
2021/06/21 19:51:06;;;;;;;5.50;2.80;;;;;;;;;;20614055;28;20309;-67
2021/06/21 20:01:06;;;;;;;5.80;3.17;;;;;;;;;;20642369;28;20217;-55
2021/06/21 20:11:07;;;;;;;5.07;2.70;;;;;;;;;;20653120;28;20234;-55
2021/06/21 20:21:07;;;;;;;5.30;3.20;;;;;;;;;;20649857;28;20320;-57
2021/06/21 20:31:07;;;;;;;3.37;3.07;;;;;;;;;;20643821;28;20248;-62
2021/06/21 20:41:08;;;;;;;6.60;3.57;;;;;;;;;;20656375;28;20268;-55
2021/06/21 20:51:09;;;;;;;5.10;3.23;;;;;;;;;;20633205;28;20296;-55
2021/06/21 21:01:09;;;;;;;3.10;2.80;;;;;;;;;;20654641;28;20225;-54
2021/06/21 21:11:09;;;;;;;5.07;3.10;;;;;;;;;;20631575;28;20296;-55
2021/06/21 21:21:10;;;;;;;6.07;3.60;;;;;;;;;;20652815;28;20276;-54
2021/06/21 21:31:10;;;;;;;5.00;3.97;;;;;;;;;;20607333;28;20222;-54
2021/06/21 21:41:10;;;;;;;4.97;3.83;;;;;;;;;;20641360;28;20236;-55
2021/06/21 21:51:11;;;;;;;3.33;3.03;;;;;;;;;;20643719;28;20268;-55
2021/06/21 22:01:11;;;;;;;3.67;3.10;;;;;;;;;;20636808;28;20274;-54
2021/06/21 22:11:11;;;;;;;5.63;3.37;;;;;;;;;;20639817;28;20252;-55
2021/06/21 22:21:12;;;;;;;9.00;3.90;;;;;;;;;;20627154;28;20702;-54
2021/06/21 22:31:12;;;;;;;8.30;3.77;;;;;;;;;;20649384;28;20225;-62
2021/06/21 22:41:12;;;;;;;5.47;3.80;;;;;;;;;;20625789;28;20304;-57
2021/06/21 22:51:13;;;;;;;7.60;3.90;;;;;;;;;;20647983;28;20297;-57
2021/06/21 23:01:13;;;;;;;5.33;3.73;;;;;;;;;;20631456;28;20264;-55
2021/06/21 23:11:13;;;;;;;5.00;4.27;;;;;;;;;;20640798;28;20240;-55
2021/06/21 23:21:14;;;;;;;6.87;4.57;;;;;;;;;;20647228;28;20754;-56
2021/06/21 23:31:14;;;;;;;9.07;4.80;;;;;;;;;;20649110;28;20836;-56
2021/06/21 23:41:15;;;;;;;6.30;4.60;;;;;;;;;;20661919;28;20324;-54
2021/06/21 23:51:15;;;;;;;5.33;4.83;;;;;;;;;;20638990;28;20620;-54
